Pagrindinis puslapis
METAR-TAF:

METAR-TAF

Oro uostai :

Mehongsonas, Tailandas

platuma: 19-18N, ilguma: 097-50E, Aukštis: 267 m

Dabartinis oras

Ataskaita buvo paskelbta 18 minutes, ne 00:00 UTC
Temperatūra 14°C
Drėgmė 94%
Slėgis 1018 hPa
Matomumas: 0400 m
rūkas

METAR: VTCH 150000Z /////KT 0400 R//// FG VV/// 14/13 Q1018 BECMG FM0130 0800 FG

Laikas: 07:18 (00:18 UTC)

Prognozė

Ataskaita buvo paskelbta 1 valandą ir 18 minutes, ne 23:00 UTC
Prognozė galioja nuo 15 metu 00 UTC su 15 metu 24 UTC
Vėjas 5 kt iš Šiaurės Rytų
Matomumas: 2000 m
Mažai debesys ne aukštis 2500 ft
rūkana
Tapsmas
nuo 15 metu 03 UTC su 15 metu 05 UTC
Matomumas: 9000 m

TAF: VTCH 142300Z 1500/1524 04005KT 2000 BR FEW025 BECMG 1503/1505 9000 NSW

Orai ataskaitas ir orų prognozės (METAR, TAF).

turimą stotys yra geltonos ir raudonos taškus žemėlapyje.

Perkelti pele per norėdami pamatyti stoties vardą.

Tada spustelėkite, norėdami matyti oro stebėjimo ir prognozės.

Norėdami pakeisti žemėlapį: spustelėkite ant žalios mygtukų su juodo kryžiaus žemyn,; žalią mygtuką su brūkšneliu, jei norite nutolinti; arba žalių rodyklių gretimoms žemėlapius.


METAR-TAF: